createdAt,value
2023-05-17T00:02:12.680Z,101543.91
2023-05-17T00:04:40.294Z,101536.06
2023-05-17T00:07:07.907Z,101533.22
2023-05-17T00:09:35.945Z,101534.31
2023-05-17T00:12:03.605Z,101533.16
2023-05-17T00:14:31.217Z,101536.88
2023-05-17T00:16:58.867Z,101538.75
2023-05-17T00:19:28.000Z,101555.09
2023-05-17T00:21:55.626Z,101546.97
2023-05-17T00:24:23.286Z,101550.47
2023-05-17T00:26:50.874Z,101555.31
2023-05-17T00:29:18.468Z,101557.50
2023-05-17T00:31:46.065Z,101556.56
2023-05-17T00:34:13.709Z,101557.56
2023-05-17T00:36:42.691Z,101562.53
2023-05-17T00:39:10.322Z,101561.53
2023-05-17T00:41:38.268Z,101562.34
2023-05-17T00:44:06.313Z,101566.25
2023-05-17T00:46:34.720Z,101572.41
2023-05-17T00:49:02.673Z,101575.72
2023-05-17T00:51:31.508Z,101579.16
2023-05-17T00:54:00.636Z,101569.88
2023-05-17T00:56:28.432Z,101579.50
2023-05-17T00:58:56.189Z,101581.81
2023-05-17T01:01:23.998Z,101582.50
2023-05-17T01:03:51.772Z,101580.19
2023-05-17T01:06:19.682Z,101580.69
2023-05-17T01:08:47.513Z,101585.88
2023-05-17T01:11:37.097Z,101584.13
2023-05-17T01:14:19.826Z,101587.28
2023-05-17T01:16:52.266Z,101583.16
2023-05-17T01:19:42.478Z,101584.38
2023-05-17T01:22:18.644Z,101593.38
2023-05-17T01:24:54.011Z,101584.09
2023-05-17T01:27:23.146Z,101595.63
2023-05-17T01:29:52.069Z,101596.13
2023-05-17T01:32:20.789Z,101596.94
2023-05-17T01:34:48.414Z,101601.09
2023-05-17T01:37:16.073Z,101604.16
2023-05-17T01:39:43.790Z,101605.50
2023-05-17T01:42:19.328Z,101608.63
2023-05-17T01:44:52.086Z,101608.47
2023-05-17T01:47:25.382Z,101607.97
2023-05-17T01:49:55.039Z,101617.78
2023-05-17T01:52:31.745Z,101614.47
2023-05-17T01:55:06.301Z,101618.13
2023-05-17T01:57:36.405Z,101620.44
2023-05-17T02:00:09.189Z,101628.75
2023-05-17T02:02:42.781Z,101628.78
2023-05-17T02:05:10.974Z,101637.09
2023-05-17T02:07:41.010Z,101629.44
2023-05-17T02:10:09.679Z,101638.94
2023-05-17T02:12:43.293Z,101639.94
2023-05-17T02:15:13.690Z,101647.75
2023-05-17T02:17:41.372Z,101644.44
2023-05-17T02:20:11.630Z,101642.44
2023-05-17T02:22:39.275Z,101654.06
2023-05-17T02:25:07.965Z,101656.72
2023-05-17T02:27:35.603Z,101654.94
2023-05-17T02:30:04.336Z,101655.59
2023-05-17T02:32:33.858Z,101654.09
2023-05-17T02:35:01.528Z,101659.25
2023-05-17T02:37:29.154Z,101664.41
2023-05-17T02:39:56.764Z,101664.91
2023-05-17T02:42:24.391Z,101668.56
2023-05-17T02:44:52.955Z,101671.75
2023-05-17T02:47:21.070Z,101677.53
2023-05-17T02:49:50.330Z,101676.06
2023-05-17T02:52:18.003Z,101679.72
2023-05-17T02:54:45.920Z,101679.06
2023-05-17T02:57:13.768Z,101680.38
2023-05-17T02:59:41.320Z,101680.38
2023-05-17T03:02:08.917Z,101683.03
2023-05-17T03:04:36.849Z,101678.38
2023-05-17T03:07:07.305Z,101690.00
2023-05-17T03:09:35.794Z,101688.84
2023-05-17T03:12:03.678Z,101697.66
2023-05-17T03:14:33.833Z,101699.97
2023-05-17T03:17:02.053Z,101698.31
2023-05-17T03:19:30.518Z,101701.94
2023-05-17T03:21:58.384Z,101703.09
2023-05-17T03:24:27.971Z,101704.91
2023-05-17T03:26:55.669Z,101714.56
2023-05-17T03:29:23.431Z,101722.22
2023-05-17T03:31:51.742Z,101710.22
2023-05-17T03:34:19.397Z,101725.19
2023-05-17T03:36:47.075Z,101720.19
2023-05-17T03:39:14.701Z,101732.31
2023-05-17T03:41:44.970Z,101736.78
2023-05-17T03:44:13.594Z,101741.09
2023-05-17T03:46:41.953Z,101745.22
2023-05-17T03:49:10.410Z,101744.38
2023-05-17T03:51:38.796Z,101742.38
2023-05-17T03:54:06.521Z,101749.56
2023-05-17T03:56:35.057Z,101753.50
2023-05-17T03:59:04.158Z,101752.34
2023-05-17T04:01:32.188Z,101759.69
2023-05-17T04:04:01.306Z,101757.72
2023-05-17T04:06:29.180Z,101766.38
2023-05-17T04:08:56.953Z,101766.03
2023-05-17T04:11:26.684Z,101762.72
2023-05-17T04:13:56.762Z,101765.72
2023-05-17T04:16:26.296Z,101772.84
2023-05-17T04:18:56.947Z,101768.38
2023-05-17T04:21:24.622Z,101762.47
2023-05-17T04:23:52.769Z,101765.44
2023-05-17T04:26:20.655Z,101764.47
2023-05-17T04:28:48.605Z,101758.97
2023-05-17T04:31:17.892Z,101768.94
2023-05-17T04:33:47.852Z,101767.97
2023-05-17T04:36:15.787Z,101771.13
2023-05-17T04:38:43.639Z,101788.72
2023-05-17T04:41:14.771Z,101788.41
2023-05-17T04:43:43.596Z,101789.41
2023-05-17T04:46:19.313Z,101791.25
2023-05-17T04:48:49.440Z,101798.41
2023-05-17T04:51:17.208Z,101797.75
2023-05-17T04:53:44.829Z,101805.91
2023-05-17T04:56:17.330Z,101797.03
2023-05-17T04:58:45.081Z,101807.72
2023-05-17T05:01:13.669Z,101810.34
2023-05-17T05:03:41.332Z,101816.97
2023-05-17T05:06:12.392Z,101818.00
2023-05-17T05:08:40.914Z,101823.81
2023-05-17T05:11:10.798Z,101825.34
2023-05-17T05:13:39.179Z,101829.97
2023-05-17T05:16:08.372Z,101817.34
2023-05-17T05:18:37.057Z,101829.31
2023-05-17T05:21:04.994Z,101831.28
2023-05-17T05:23:34.011Z,101829.63
2023-05-17T05:26:01.882Z,101844.59
2023-05-17T05:28:29.847Z,101849.59
2023-05-17T05:30:59.644Z,101844.94
2023-05-17T05:33:31.877Z,101846.28
2023-05-17T05:35:59.557Z,101849.78
2023-05-17T05:38:28.341Z,101849.13
2023-05-17T05:40:57.635Z,101862.25
2023-05-17T05:43:25.309Z,101863.41
2023-05-17T05:45:52.942Z,101869.25
2023-05-17T05:48:22.265Z,101858.25
2023-05-17T05:50:50.107Z,101860.91
2023-05-17T05:53:19.811Z,101866.38
2023-05-17T05:55:54.762Z,101873.16
2023-05-17T05:58:23.845Z,101870.16
2023-05-17T06:00:52.205Z,101880.16
2023-05-17T06:03:19.807Z,101882.47
2023-05-17T06:05:47.472Z,101893.63
2023-05-17T06:08:15.093Z,101886.63
2023-05-17T06:10:42.720Z,101894.44
2023-05-17T06:13:10.311Z,101897.97
2023-05-17T06:15:39.189Z,101908.59
2023-05-17T06:18:06.868Z,101915.38
2023-05-17T06:20:34.702Z,101921.41
2023-05-17T06:23:04.957Z,101929.63
2023-05-17T06:25:32.513Z,101938.44
2023-05-17T06:28:02.587Z,101934.94
2023-05-17T06:30:30.594Z,101940.97
2023-05-17T06:33:00.025Z,101945.28
2023-05-17T06:35:28.091Z,101938.09
2023-05-17T06:37:56.811Z,101946.75
2023-05-17T06:40:24.480Z,101945.06
2023-05-17T06:42:52.056Z,101955.16
2023-05-17T06:45:19.660Z,101955.16
2023-05-17T06:47:49.404Z,101960.91
2023-05-17T06:50:18.639Z,101962.00
2023-05-17T06:52:46.643Z,101963.84
2023-05-17T06:55:14.227Z,101964.63
2023-05-17T06:57:41.770Z,101963.16
2023-05-17T07:00:11.425Z,101966.69
2023-05-17T07:02:39.337Z,101975.06
2023-05-17T07:05:08.431Z,101978.44
2023-05-17T07:07:37.439Z,101977.41
2023-05-17T07:10:06.290Z,101979.72
2023-05-17T07:12:34.885Z,101992.38
2023-05-17T07:15:02.723Z,101990.72
2023-05-17T07:17:30.967Z,101993.91
2023-05-17T07:19:59.379Z,102001.53
2023-05-17T07:22:27.090Z,101988.69
2023-05-17T07:24:56.493Z,101998.13
2023-05-17T07:27:24.345Z,101992.91
2023-05-17T07:29:51.904Z,101995.56
2023-05-17T07:32:19.709Z,102002.25
2023-05-17T07:34:47.362Z,102009.75
2023-05-17T07:37:15.056Z,102002.94
2023-05-17T07:39:42.926Z,101997.25
2023-05-17T07:42:14.209Z,102011.53
2023-05-17T07:44:41.819Z,102010.78
2023-05-17T07:47:09.448Z,102018.00
2023-05-17T07:49:37.624Z,102034.03
2023-05-17T07:52:05.618Z,102028.16
2023-05-17T07:54:33.278Z,102034.66
2023-05-17T07:57:01.321Z,102035.47
2023-05-17T07:59:30.297Z,102043.31
2023-05-17T08:01:58.092Z,102047.03
2023-05-17T08:04:25.948Z,102044.84
2023-05-17T08:06:55.296Z,102060.03
2023-05-17T08:09:23.443Z,102066.97
2023-05-17T08:11:51.362Z,102058.50
2023-05-17T08:14:19.238Z,102053.59
2023-05-17T08:16:48.662Z,102039.84
2023-05-17T08:19:16.547Z,102058.06
2023-05-17T08:21:46.183Z,102060.72
2023-05-17T08:24:14.138Z,102059.16
2023-05-17T08:26:42.026Z,102056.06
2023-05-17T08:29:09.713Z,102070.75
2023-05-17T08:31:37.325Z,102068.34
2023-05-17T08:34:06.441Z,102075.22
2023-05-17T08:36:34.334Z,102069.22
2023-05-17T08:39:01.981Z,102069.25
2023-05-17T08:41:31.042Z,102070.19
2023-05-17T08:44:00.006Z,102069.03
2023-05-17T08:46:29.347Z,102071.53
2023-05-17T08:48:59.945Z,102063.31
2023-05-17T08:51:29.934Z,102074.66
2023-05-17T08:53:57.869Z,102082.91
2023-05-17T08:56:28.261Z,102093.13
2023-05-17T08:58:58.093Z,102100.78
2023-05-17T09:01:28.366Z,102101.03
2023-05-17T09:03:57.055Z,102102.75
2023-05-17T09:06:25.364Z,102100.44
2023-05-17T09:08:55.698Z,102104.31
2023-05-17T09:11:28.116Z,102105.81
2023-05-17T09:13:59.801Z,102113.41
2023-05-17T09:16:29.357Z,102117.78
2023-05-17T09:18:58.094Z,102105.94
2023-05-17T09:21:27.348Z,102111.72
2023-05-17T09:24:06.096Z,102104.63
2023-05-17T09:26:42.400Z,102115.81
2023-05-17T09:29:11.418Z,102112.38
2023-05-17T09:31:39.615Z,102104.66
2023-05-17T09:34:08.136Z,102118.72
2023-05-17T09:36:37.042Z,102113.63
2023-05-17T09:39:10.537Z,102108.69
2023-05-17T09:41:43.336Z,102113.84
2023-05-17T09:44:13.011Z,102127.78
2023-05-17T09:46:45.171Z,102125.69
2023-05-17T09:49:13.948Z,102117.00
2023-05-17T09:51:43.644Z,102117.97
2023-05-17T09:54:13.153Z,102114.94
2023-05-17T09:56:41.587Z,102122.34
2023-05-17T09:59:13.150Z,102125.31
2023-05-17T10:01:42.295Z,102123.22
2023-05-17T10:04:11.776Z,102125.13
2023-05-17T10:09:15.597Z,102109.56
2023-05-17T10:11:47.782Z,102125.13
2023-05-17T10:14:22.413Z,102126.31
2023-05-17T10:16:51.698Z,102126.09
2023-05-17T10:19:41.271Z,102122.41
2023-05-17T10:22:21.741Z,102134.00
2023-05-17T10:24:53.013Z,102121.25
2023-05-17T10:27:21.917Z,102136.13
2023-05-17T10:29:51.025Z,102135.97
2023-05-17T10:32:23.055Z,102135.91
2023-05-17T10:35:05.947Z,102138.25
2023-05-17T10:37:38.768Z,102138.34
2023-05-17T10:40:13.106Z,102132.25
2023-05-17T10:42:43.414Z,102132.06
2023-05-17T10:45:13.093Z,102133.00
2023-05-17T10:47:42.587Z,102135.72
2023-05-17T10:50:12.886Z,102130.34
2023-05-17T10:52:47.617Z,102141.81
2023-05-17T10:55:19.616Z,102129.88
2023-05-17T10:58:09.116Z,102129.25
2023-05-17T11:00:40.561Z,102140.44
2023-05-17T11:03:16.730Z,102139.50
2023-05-17T11:05:45.579Z,102149.13
2023-05-17T11:08:15.186Z,102134.22
2023-05-17T11:11:11.701Z,102147.00
2023-05-17T11:13:53.701Z,102146.19
2023-05-17T11:16:28.653Z,102140.53
2023-05-17T11:19:08.854Z,102141.81
2023-05-17T11:21:37.205Z,102149.31
2023-05-17T11:24:05.666Z,102133.72
2023-05-17T11:26:38.920Z,102136.78
2023-05-17T11:29:10.334Z,102154.75
2023-05-17T11:31:43.508Z,102145.78
2023-05-17T11:34:12.246Z,102146.19
2023-05-17T11:36:51.287Z,102156.91
2023-05-17T11:39:21.513Z,102163.25
2023-05-17T11:41:51.852Z,102153.53
2023-05-17T11:44:26.056Z,102144.59
2023-05-17T11:47:02.391Z,102141.16
2023-05-17T11:49:35.602Z,102138.50
2023-05-17T11:52:04.574Z,102144.41
2023-05-17T11:54:32.676Z,102129.50
2023-05-17T11:57:02.725Z,102145.44
2023-05-17T11:59:30.298Z,102133.69
2023-05-17T12:01:57.857Z,102143.94
2023-05-17T12:04:26.871Z,102144.28
2023-05-17T12:06:55.786Z,102149.31
2023-05-17T12:09:24.294Z,102162.41
2023-05-17T12:11:51.997Z,102160.00
2023-05-17T12:14:21.742Z,102153.16
2023-05-17T12:16:56.221Z,102156.88
2023-05-17T12:19:27.283Z,102159.25
2023-05-17T12:21:54.993Z,102148.75
2023-05-17T12:24:22.847Z,102147.88
2023-05-17T12:26:50.561Z,102142.44
2023-05-17T12:29:23.948Z,102155.09
2023-05-17T12:31:54.796Z,102152.88
2023-05-17T12:34:23.214Z,102149.19
2023-05-17T12:36:52.633Z,102158.16
2023-05-17T12:39:23.698Z,102160.44
2023-05-17T12:41:52.583Z,102151.78
2023-05-17T12:44:22.177Z,102157.09
2023-05-17T12:46:53.634Z,102159.53
2023-05-17T12:49:22.369Z,102161.59
2023-05-17T12:51:50.473Z,102153.13
2023-05-17T12:54:27.829Z,102152.78
2023-05-17T12:56:56.068Z,102154.47
2023-05-17T12:59:26.136Z,102166.28
2023-05-17T13:01:55.502Z,102160.44
2023-05-17T13:04:31.877Z,102169.00
2023-05-17T13:07:01.241Z,102165.44
2023-05-17T13:09:30.997Z,102170.31
2023-05-17T13:12:00.820Z,102179.69
2023-05-17T13:14:37.434Z,102170.13
2023-05-17T13:17:06.061Z,102166.81
2023-05-17T13:19:35.764Z,102180.66
2023-05-17T13:22:03.809Z,102190.13
2023-05-17T13:24:34.797Z,102179.34
2023-05-17T13:27:02.779Z,102188.97
2023-05-17T13:29:38.677Z,102194.19
2023-05-17T13:32:09.282Z,102194.19
2023-05-17T13:34:37.109Z,102189.22
2023-05-17T13:37:05.927Z,102187.19
2023-05-17T13:39:35.069Z,102191.63
2023-05-17T13:42:03.429Z,102189.78
2023-05-17T13:44:31.070Z,102193.31
2023-05-17T13:46:58.655Z,102179.78
2023-05-17T13:49:28.365Z,102185.50
2023-05-17T13:51:56.530Z,102196.31
2023-05-17T13:54:24.182Z,102185.22
2023-05-17T13:56:51.831Z,102182.72
2023-05-17T13:59:19.575Z,102192.34
2023-05-17T14:01:47.187Z,102177.00
2023-05-17T14:04:14.759Z,102188.56
2023-05-17T14:06:44.867Z,102180.81
2023-05-17T14:09:14.230Z,102188.66
2023-05-17T14:11:41.875Z,102198.81
2023-05-17T14:14:09.562Z,102191.34
2023-05-17T14:16:37.368Z,102200.28
2023-05-17T14:19:05.217Z,102201.03
2023-05-17T14:21:33.129Z,102208.16
2023-05-17T14:24:02.002Z,102197.63
2023-05-17T14:26:29.649Z,102197.44
2023-05-17T14:28:57.236Z,102206.03
2023-05-17T14:31:24.800Z,102204.69
2023-05-17T14:33:52.476Z,102214.38
2023-05-17T14:36:20.044Z,102213.69
2023-05-17T14:38:47.593Z,102212.94
2023-05-17T14:41:18.364Z,102212.47
2023-05-17T14:43:45.969Z,102215.88
2023-05-17T14:46:14.536Z,102224.91
2023-05-17T14:48:42.137Z,102218.19
2023-05-17T14:51:09.891Z,102226.22
2023-05-17T14:53:37.622Z,102217.94
2023-05-17T14:56:05.686Z,102222.25
2023-05-17T14:58:34.618Z,102228.50
2023-05-17T15:01:05.672Z,102231.13
2023-05-17T15:03:34.818Z,102230.88
2023-05-17T15:06:05.402Z,102231.75
2023-05-17T15:08:35.740Z,102235.25
2023-05-17T15:11:03.386Z,102250.38
2023-05-17T15:13:31.376Z,102245.66
2023-05-17T15:16:00.896Z,102241.84
2023-05-17T15:18:28.480Z,102234.78
2023-05-17T15:20:56.080Z,102247.69
2023-05-17T15:23:23.873Z,102247.22
2023-05-17T15:25:51.540Z,102244.47
2023-05-17T15:28:20.770Z,102239.94
2023-05-17T15:30:48.397Z,102243.97
2023-05-17T15:33:17.434Z,102239.34
2023-05-17T15:35:45.284Z,102238.41
2023-05-17T15:38:12.862Z,102229.72
2023-05-17T15:40:40.497Z,102222.75
2023-05-17T15:43:08.109Z,102236.84
2023-05-17T15:45:35.674Z,102233.53
2023-05-17T15:48:03.231Z,102229.38
2023-05-17T15:50:32.290Z,102238.34
2023-05-17T15:53:01.875Z,102239.53
2023-05-17T15:55:30.313Z,102229.09
2023-05-17T15:57:58.029Z,102234.59
2023-05-17T16:00:26.286Z,102238.88
2023-05-17T16:02:53.898Z,102241.69
2023-05-17T16:05:21.528Z,102237.41
2023-05-17T16:07:50.623Z,102236.00
2023-05-17T16:10:18.549Z,102253.63
2023-05-17T16:12:47.354Z,102247.34
2023-05-17T16:15:14.892Z,102248.22
2023-05-17T16:17:42.614Z,102253.81
2023-05-17T16:20:11.444Z,102244.69
2023-05-17T16:22:43.145Z,102263.53
2023-05-17T16:25:12.845Z,102260.84
2023-05-17T16:27:40.620Z,102263.75
2023-05-17T16:30:09.562Z,102262.25
2023-05-17T16:32:37.740Z,102274.25
2023-05-17T16:35:06.225Z,102275.63
2023-05-17T16:37:33.802Z,102263.47
2023-05-17T16:40:01.891Z,102274.06
2023-05-17T16:42:31.555Z,102276.22
2023-05-17T16:44:59.134Z,102284.06
2023-05-17T16:47:27.961Z,102283.50
2023-05-17T16:49:56.534Z,102278.41
2023-05-17T16:52:24.220Z,102283.28
2023-05-17T16:54:51.805Z,102282.09
2023-05-17T16:57:19.529Z,102290.66
2023-05-17T16:59:48.450Z,102283.78
2023-05-17T17:02:16.197Z,102298.69
2023-05-17T17:04:43.872Z,102287.00
2023-05-17T17:07:11.446Z,102291.63
2023-05-17T17:09:39.054Z,102302.69
2023-05-17T17:12:16.550Z,102296.19
2023-05-17T17:14:52.817Z,102304.19
2023-05-17T17:17:20.553Z,102307.03
2023-05-17T17:19:48.150Z,102300.00
2023-05-17T17:22:16.192Z,102302.63
2023-05-17T17:24:44.410Z,102306.66
2023-05-17T17:27:12.049Z,102309.56
2023-05-17T17:29:39.731Z,102314.72
2023-05-17T17:32:09.321Z,102309.03
2023-05-17T17:34:36.884Z,102303.38
2023-05-17T17:37:04.470Z,102314.75
2023-05-17T17:39:32.008Z,102312.06
2023-05-17T17:41:59.579Z,102308.22
2023-05-17T17:44:27.163Z,102317.06
2023-05-17T17:46:54.828Z,102314.06
2023-05-17T17:49:23.765Z,102322.41
2023-05-17T17:51:51.348Z,102324.75
2023-05-17T17:54:18.936Z,102325.41
2023-05-17T17:56:46.532Z,102328.72
2023-05-17T17:59:14.065Z,102332.75
2023-05-17T18:01:41.827Z,102341.75
2023-05-17T18:04:10.997Z,102342.44
2023-05-17T18:06:40.068Z,102346.81
2023-05-17T18:09:07.648Z,102349.66
2023-05-17T18:11:35.200Z,102342.63
2023-05-17T18:14:03.262Z,102345.66
2023-05-17T18:16:30.899Z,102341.13
2023-05-17T18:18:58.589Z,102354.50
2023-05-17T18:21:26.227Z,102349.16
2023-05-17T18:23:55.091Z,102354.16
2023-05-17T18:26:23.173Z,102352.50
2023-05-17T18:28:50.957Z,102356.53
2023-05-17T18:31:19.095Z,102355.19
2023-05-17T18:33:46.705Z,102355.03
2023-05-17T18:36:14.298Z,102366.25
2023-05-17T18:38:41.815Z,102357.53
2023-05-17T18:41:10.790Z,102363.72
2023-05-17T18:43:38.340Z,102373.91
2023-05-17T18:46:05.964Z,102367.75
2023-05-17T18:48:36.009Z,102369.06
2023-05-17T18:51:03.895Z,102374.25
2023-05-17T18:53:31.508Z,102374.09
2023-05-17T18:56:01.432Z,102374.91
2023-05-17T18:58:30.753Z,102383.94
2023-05-17T19:01:00.100Z,102372.22
2023-05-17T19:03:27.820Z,102384.94
2023-05-17T19:05:55.462Z,102376.56
2023-05-17T19:08:22.999Z,102380.94
2023-05-17T19:10:50.691Z,102379.59
2023-05-17T19:13:18.285Z,102380.75
2023-05-17T19:15:47.167Z,102380.94
2023-05-17T19:18:14.864Z,102384.94
2023-05-17T19:20:42.542Z,102383.25
2023-05-17T19:23:10.207Z,102377.56
2023-05-17T19:25:37.806Z,102386.25
2023-05-17T19:28:05.683Z,102386.44
2023-05-17T19:30:33.503Z,102378.56
2023-05-17T19:33:02.603Z,102375.56
2023-05-17T19:35:30.267Z,102380.41
2023-05-17T19:37:57.870Z,102380.56
2023-05-17T19:40:25.578Z,102385.59
2023-05-17T19:42:53.165Z,102388.25
2023-05-17T19:45:20.891Z,102392.09
2023-05-17T19:47:48.484Z,102389.44
2023-05-17T19:50:17.425Z,102387.56
2023-05-17T19:52:44.981Z,102389.56
2023-05-17T19:55:15.063Z,102386.56
2023-05-17T19:57:43.017Z,102387.88
2023-05-17T20:00:11.477Z,102385.03
2023-05-17T20:02:39.148Z,102393.22
2023-05-17T20:05:07.198Z,102388.38
2023-05-17T20:07:36.388Z,102387.22
2023-05-17T20:10:04.107Z,102396.88
2023-05-17T20:12:31.667Z,102397.06
2023-05-17T20:14:59.269Z,102392.53
2023-05-17T20:17:26.880Z,102396.84
2023-05-17T20:19:54.469Z,102403.50
2023-05-17T20:22:22.187Z,102405.34
2023-05-17T20:24:51.178Z,102401.16
2023-05-17T20:27:18.809Z,102403.69
2023-05-17T20:29:46.413Z,102399.34
2023-05-17T20:32:14.017Z,102404.34
2023-05-17T20:34:41.561Z,102405.19
2023-05-17T20:37:09.149Z,102410.84
2023-05-17T20:39:36.768Z,102404.19
2023-05-17T20:42:07.679Z,102405.81
2023-05-17T20:44:35.684Z,102412.16
2023-05-17T20:47:04.790Z,102413.84
2023-05-17T20:49:32.391Z,102418.19
2023-05-17T20:52:03.086Z,102409.47
2023-05-17T20:54:31.313Z,102415.47
2023-05-17T20:56:59.263Z,102413.81
2023-05-17T20:59:28.473Z,102414.47
2023-05-17T21:01:56.522Z,102412.47
2023-05-17T21:04:24.181Z,102418.13
2023-05-17T21:06:52.267Z,102413.16
2023-05-17T21:09:19.883Z,102413.50
2023-05-17T21:11:47.465Z,102416.47
2023-05-17T21:14:15.033Z,102417.47
2023-05-17T21:16:43.963Z,102423.63
2023-05-17T21:19:11.640Z,102410.44
2023-05-17T21:21:39.219Z,102414.88
2023-05-17T21:24:07.933Z,102407.03
2023-05-17T21:26:36.875Z,102419.09
2023-05-17T21:29:06.080Z,102418.53
2023-05-17T21:31:33.737Z,102414.38
2023-05-17T21:34:02.775Z,102413.69
2023-05-17T21:36:31.176Z,102420.66
2023-05-17T21:38:58.761Z,102416.56
2023-05-17T21:41:26.449Z,102419.94
2023-05-17T21:43:53.995Z,102410.56
2023-05-17T21:46:21.551Z,102414.75
2023-05-17T21:48:49.196Z,102411.63
2023-05-17T21:51:18.147Z,102409.94
2023-05-17T21:53:45.806Z,102406.22
2023-05-17T21:56:13.423Z,102411.56
2023-05-17T21:58:41.076Z,102415.59
2023-05-17T22:01:08.770Z,102420.56
2023-05-17T22:03:36.552Z,102420.00
2023-05-17T22:06:04.470Z,102416.88
2023-05-17T22:08:33.388Z,102414.81
2023-05-17T22:11:00.987Z,102414.47
2023-05-17T22:13:28.974Z,102411.44
2023-05-17T22:15:57.213Z,102411.72
2023-05-17T22:18:26.581Z,102407.41
2023-05-17T22:20:54.935Z,102410.91
2023-05-17T22:23:22.610Z,102412.13
2023-05-17T22:25:51.730Z,102420.16
2023-05-17T22:28:19.444Z,102423.09
2023-05-17T22:30:47.094Z,102423.56
2023-05-17T22:33:14.946Z,102422.25
2023-05-17T22:35:42.523Z,102428.00
2023-05-17T22:38:10.135Z,102424.81
2023-05-17T22:40:37.808Z,102426.81
2023-05-17T22:43:08.143Z,102422.81
2023-05-17T22:45:35.762Z,102431.94
2023-05-17T22:48:05.579Z,102431.41
2023-05-17T22:50:33.667Z,102437.78
2023-05-17T22:53:01.947Z,102427.66
2023-05-17T22:55:29.853Z,102438.81
2023-05-17T22:57:57.909Z,102439.38
2023-05-17T23:00:27.094Z,102435.16
2023-05-17T23:02:54.669Z,102432.78
2023-05-17T23:05:22.683Z,102442.81
2023-05-17T23:07:50.218Z,102441.91
2023-05-17T23:10:17.844Z,102441.69
2023-05-17T23:12:45.399Z,102446.84
2023-05-17T23:15:13.208Z,102439.03
2023-05-17T23:17:42.130Z,102439.78
2023-05-17T23:20:12.037Z,102440.25
2023-05-17T23:22:40.291Z,102445.38
2023-05-17T23:25:08.352Z,102441.06
2023-05-17T23:27:36.532Z,102443.50
2023-05-17T23:30:05.651Z,102443.19
2023-05-17T23:32:33.944Z,102444.69
2023-05-17T23:35:04.674Z,102447.91
2023-05-17T23:37:32.613Z,102444.53
2023-05-17T23:40:00.658Z,102449.84
2023-05-17T23:42:29.278Z,102449.84
2023-05-17T23:44:56.903Z,102451.84
2023-05-17T23:47:25.464Z,102450.69
2023-05-17T23:49:53.050Z,102446.38
2023-05-17T23:52:23.577Z,102446.81
2023-05-17T23:54:51.483Z,102453.06
2023-05-17T23:57:19.022Z,102451.41
2023-05-17T23:59:46.567Z,102453.31
